createdAt,value
2022-10-02T00:00:02.587Z,0.30
2022-10-02T00:02:37.010Z,0.50
2022-10-02T00:05:08.495Z,0.30
2022-10-02T00:07:43.517Z,0.30
2022-10-02T00:10:17.098Z,0.40
2022-10-02T00:12:46.935Z,0.40
2022-10-02T00:15:19.128Z,0.40
2022-10-02T00:17:52.652Z,0.30
2022-10-02T00:20:29.056Z,0.40
2022-10-02T00:23:03.089Z,0.60
2022-10-02T00:25:36.558Z,0.30
2022-10-02T00:28:18.812Z,0.30
2022-10-02T00:31:08.434Z,0.28
2022-10-02T00:33:49.500Z,0.50
2022-10-02T00:36:30.576Z,0.77
2022-10-02T00:39:07.611Z,0.68
2022-10-02T00:42:10.044Z,0.40
2022-10-02T00:44:52.023Z,0.30
2022-10-02T00:47:31.509Z,0.63
2022-10-02T00:50:15.777Z,0.45
2022-10-02T00:52:57.151Z,0.30
2022-10-02T00:56:08.670Z,0.30
2022-10-02T00:58:56.670Z,0.85
2022-10-02T01:01:30.383Z,0.20
2022-10-02T01:04:01.985Z,0.30
2022-10-02T01:06:30.373Z,0.30
2022-10-02T01:08:58.936Z,0.60
2022-10-02T01:11:30.724Z,0.40
2022-10-02T01:13:59.133Z,1.17
2022-10-02T01:16:27.315Z,0.30
2022-10-02T01:18:55.310Z,0.30
2022-10-02T01:21:29.628Z,1.33
2022-10-02T01:24:02.906Z,0.30
2022-10-02T01:26:33.108Z,0.70
2022-10-02T01:29:01.468Z,0.63
2022-10-02T01:31:29.568Z,0.73
2022-10-02T01:33:57.851Z,0.93
2022-10-02T01:36:26.701Z,0.50
2022-10-02T01:38:55.642Z,0.40
2022-10-02T01:41:23.881Z,0.45
2022-10-02T01:43:56.777Z,0.43
2022-10-02T01:46:35.362Z,0.55
2022-10-02T01:49:32.561Z,0.65
2022-10-02T01:52:21.268Z,0.43
2022-10-02T01:55:04.261Z,1.48
2022-10-02T01:57:46.750Z,0.87
2022-10-02T02:00:19.830Z,0.20
2022-10-02T02:02:57.457Z,0.30
2022-10-02T02:05:33.954Z,0.47
2022-10-02T02:08:10.025Z,0.70
2022-10-02T02:10:48.313Z,0.53
2022-10-02T02:13:22.497Z,0.30
2022-10-02T02:15:58.091Z,0.20
2022-10-02T02:18:32.902Z,0.30
2022-10-02T02:21:05.010Z,0.30
2022-10-02T02:23:38.011Z,0.33
2022-10-02T02:26:09.488Z,0.30
2022-10-02T02:28:39.044Z,0.50
2022-10-02T02:31:10.997Z,0.50
2022-10-02T02:33:44.925Z,0.20
2022-10-02T02:36:17.138Z,0.82
2022-10-02T02:38:49.187Z,0.60
2022-10-02T02:41:21.595Z,0.30
2022-10-02T02:43:55.449Z,0.43
2022-10-02T02:46:31.676Z,0.20
2022-10-02T02:49:04.136Z,0.57
2022-10-02T02:51:37.498Z,0.67
2022-10-02T02:54:09.360Z,0.20
2022-10-02T02:56:38.423Z,0.37
2022-10-02T02:59:09.825Z,0.20
2022-10-02T03:01:42.933Z,0.20
2022-10-02T03:04:13.694Z,0.30
2022-10-02T03:06:44.230Z,0.77
2022-10-02T03:09:14.945Z,0.20
2022-10-02T03:11:53.634Z,0.43
2022-10-02T03:14:46.470Z,0.20
2022-10-02T03:17:29.227Z,0.20
2022-10-02T03:20:04.556Z,0.50
2022-10-02T03:22:43.499Z,0.30
2022-10-02T03:25:15.053Z,0.80
2022-10-02T03:27:47.610Z,0.27
2022-10-02T03:30:20.689Z,0.30
2022-10-02T03:32:53.637Z,1.43
2022-10-02T03:35:23.185Z,0.20
2022-10-02T03:37:54.164Z,0.20
2022-10-02T03:40:24.200Z,0.27
2022-10-02T03:42:53.125Z,0.30
2022-10-02T03:45:46.098Z,0.50
2022-10-02T03:48:10.696Z,0.30
2022-10-02T03:50:38.651Z,0.30
2022-10-02T03:53:15.282Z,0.30
2022-10-02T03:55:47.529Z,0.30
2022-10-02T03:58:18.716Z,0.23
2022-10-02T04:00:53.484Z,1.70
2022-10-02T04:03:27.558Z,1.23
2022-10-02T04:06:01.158Z,0.77
2022-10-02T04:08:32.998Z,0.37
2022-10-02T04:11:07.961Z,0.20
2022-10-02T04:13:40.003Z,0.70
2022-10-02T04:16:14.354Z,0.50
2022-10-02T04:18:53.744Z,0.30
2022-10-02T04:21:34.999Z,0.30
2022-10-02T04:24:11.905Z,0.57
2022-10-02T04:26:45.166Z,0.30
2022-10-02T04:29:20.086Z,0.30
2022-10-02T04:31:53.256Z,0.30
2022-10-02T04:34:23.832Z,0.20
2022-10-02T04:37:11.748Z,0.40
2022-10-02T04:39:54.525Z,0.30
2022-10-02T04:42:38.297Z,0.40
2022-10-02T04:45:26.599Z,1.17
2022-10-02T04:48:36.274Z,0.30
2022-10-02T04:51:17.065Z,0.50
2022-10-02T04:53:56.543Z,0.30
2022-10-02T04:56:50.319Z,0.40
2022-10-02T04:59:29.516Z,0.30
2022-10-02T05:02:19.596Z,0.50
2022-10-02T05:05:05.889Z,0.70
2022-10-02T05:07:57.072Z,0.63
2022-10-02T05:10:52.090Z,1.43
2022-10-02T05:13:37.600Z,0.50
2022-10-02T05:16:29.521Z,0.67
2022-10-02T05:19:20.438Z,0.37
2022-10-02T05:22:29.172Z,0.30
2022-10-02T05:25:10.413Z,0.30
2022-10-02T05:28:03.297Z,0.50
2022-10-02T05:30:39.572Z,0.47
2022-10-02T05:33:22.907Z,0.53
2022-10-02T05:36:06.859Z,0.30
2022-10-02T05:39:11.264Z,0.50
2022-10-02T05:41:59.598Z,0.50
2022-10-02T05:44:35.866Z,0.40
2022-10-02T05:47:12.811Z,0.30
2022-10-02T05:49:44.842Z,0.30
2022-10-02T05:52:17.610Z,0.77
2022-10-02T05:54:52.505Z,0.50
2022-10-02T05:57:27.394Z,0.40
2022-10-02T06:00:05.948Z,0.40
2022-10-02T06:02:43.229Z,0.90
2022-10-02T06:05:17.271Z,0.70
2022-10-02T06:07:48.787Z,0.53
2022-10-02T06:10:19.723Z,0.63
2022-10-02T06:12:54.945Z,0.73
2022-10-02T06:15:29.670Z,0.97
2022-10-02T06:18:01.294Z,0.50
2022-10-02T06:20:34.293Z,0.50
2022-10-02T06:23:08.742Z,0.60
2022-10-02T06:25:40.953Z,0.30
2022-10-02T06:28:16.809Z,1.03
2022-10-02T06:30:50.762Z,0.80
2022-10-02T06:33:23.805Z,1.00
2022-10-02T06:36:18.088Z,0.70
2022-10-02T06:39:11.967Z,0.70
2022-10-02T06:41:49.533Z,0.77
2022-10-02T06:44:24.468Z,0.50
2022-10-02T06:47:06.175Z,1.23
2022-10-02T06:49:47.334Z,0.93
2022-10-02T06:52:26.474Z,0.53
2022-10-02T06:55:18.793Z,0.30
2022-10-02T06:58:01.294Z,0.27
2022-10-02T07:00:34.880Z,0.30
2022-10-02T07:03:27.378Z,1.03
2022-10-02T07:06:15.656Z,0.30
2022-10-02T07:09:09.687Z,0.70
2022-10-02T07:11:48.419Z,0.30
2022-10-02T07:14:31.415Z,0.40
2022-10-02T07:17:22.040Z,0.30
2022-10-02T07:20:10.326Z,0.70
2022-10-02T07:22:51.641Z,0.50
2022-10-02T07:25:59.204Z,0.53
2022-10-02T07:28:36.753Z,0.83
2022-10-02T07:31:11.452Z,0.40
2022-10-02T07:33:54.110Z,0.50
2022-10-02T07:36:35.423Z,0.50
2022-10-02T07:39:16.093Z,0.50
2022-10-02T07:42:05.991Z,0.70
2022-10-02T07:44:51.157Z,0.70
2022-10-02T07:47:38.779Z,0.70
2022-10-02T07:50:13.892Z,0.40
2022-10-02T07:52:47.981Z,0.40
2022-10-02T07:55:19.106Z,0.43
2022-10-02T07:57:57.367Z,0.67
2022-10-02T08:00:29.284Z,0.60
2022-10-02T08:03:00.841Z,0.80
2022-10-02T08:05:34.617Z,0.50
2022-10-02T08:08:08.038Z,0.80
2022-10-02T08:10:40.032Z,0.85
2022-10-02T08:13:14.742Z,0.53
2022-10-02T08:15:45.608Z,0.70
2022-10-02T08:18:34.064Z,0.50
2022-10-02T08:21:05.986Z,0.60
2022-10-02T08:23:40.598Z,0.95
2022-10-02T08:26:13.645Z,0.60
2022-10-02T08:28:45.692Z,0.60
2022-10-02T08:31:14.838Z,0.80
2022-10-02T08:33:43.686Z,0.90
2022-10-02T08:36:36.333Z,0.60
2022-10-02T08:39:32.565Z,0.98
2022-10-02T08:42:46.554Z,1.17
2022-10-02T08:45:49.029Z,0.90
2022-10-02T08:49:06.549Z,0.68
2022-10-02T08:52:17.007Z,0.60
2022-10-02T08:55:17.053Z,0.70
2022-10-02T08:58:04.255Z,0.97
2022-10-02T09:00:46.098Z,1.30
2022-10-02T09:03:46.072Z,0.70
2022-10-02T09:06:46.746Z,0.60
2022-10-02T09:09:51.418Z,0.70
2022-10-02T09:13:05.486Z,0.75
2022-10-02T09:15:46.978Z,0.65
2022-10-02T09:18:29.678Z,1.00
2022-10-02T09:21:15.547Z,0.80
2022-10-02T09:24:26.958Z,0.80
2022-10-02T09:27:39.322Z,0.90
2022-10-02T09:30:40.556Z,1.25
2022-10-02T09:33:42.478Z,1.73
2022-10-02T09:36:51.154Z,1.50
2022-10-02T09:40:00.212Z,1.50
2022-10-02T09:42:54.537Z,2.08
2022-10-02T09:45:49.093Z,1.13
2022-10-02T09:48:50.931Z,1.40
2022-10-02T09:52:11.747Z,1.70
2022-10-02T09:55:10.429Z,1.33
2022-10-02T09:58:29.225Z,1.20
2022-10-02T10:01:29.655Z,1.23
2022-10-02T10:04:47.866Z,1.20
2022-10-02T10:07:59.268Z,1.30
2022-10-02T10:10:50.757Z,1.50
2022-10-02T10:14:03.779Z,1.60
2022-10-02T10:16:53.042Z,1.55
2022-10-02T10:20:02.326Z,1.73
2022-10-02T10:23:01.144Z,1.70
2022-10-02T10:25:53.141Z,1.90
2022-10-02T10:29:03.985Z,1.90
2022-10-02T10:31:56.826Z,2.25
2022-10-02T10:34:58.090Z,2.53
2022-10-02T10:38:12.099Z,2.20
2022-10-02T10:40:50.624Z,2.80
2022-10-02T10:44:04.029Z,2.90
2022-10-02T10:47:16.063Z,3.17
2022-10-02T10:50:25.296Z,3.60
2022-10-02T10:53:11.773Z,4.60
2022-10-02T10:56:03.780Z,8.82
2022-10-02T10:58:50.533Z,12.57
2022-10-02T11:01:20.897Z,13.68
2022-10-02T11:04:15.695Z,14.40
2022-10-02T11:07:34.735Z,14.55
2022-10-02T11:10:25.572Z,15.80
2022-10-02T11:13:33.184Z,15.40
2022-10-02T11:16:40.482Z,15.45
2022-10-02T11:19:34.446Z,15.63
2022-10-02T11:22:21.317Z,15.80
2022-10-02T11:25:25.773Z,15.68
2022-10-02T11:28:23.768Z,15.82
2022-10-02T11:31:01.706Z,15.80
2022-10-02T11:34:08.832Z,15.88
2022-10-02T11:36:52.720Z,16.02
2022-10-02T11:39:37.887Z,16.02
2022-10-02T11:42:48.415Z,16.83
2022-10-02T11:45:33.991Z,17.35
2022-10-02T11:48:29.829Z,16.33
2022-10-02T11:51:27.112Z,17.00
2022-10-02T11:54:19.647Z,16.60
2022-10-02T11:57:10.102Z,16.63
2022-10-02T11:59:53.782Z,16.55
2022-10-02T12:02:27.353Z,16.80
2022-10-02T12:05:17.519Z,16.23
2022-10-02T12:07:55.598Z,16.70
2022-10-02T12:10:50.511Z,16.80
2022-10-02T12:13:47.151Z,16.30
2022-10-02T12:16:24.653Z,16.60
2022-10-02T12:19:07.598Z,17.48
2022-10-02T12:22:07.360Z,17.15
2022-10-02T12:25:01.806Z,17.02
2022-10-02T12:27:44.537Z,17.17
2022-10-02T12:30:15.953Z,17.33
2022-10-02T12:32:53.129Z,17.17
2022-10-02T12:35:52.127Z,17.45
2022-10-02T12:38:29.964Z,17.40
2022-10-02T12:41:08.632Z,17.40
2022-10-02T12:44:09.525Z,16.38
2022-10-02T12:47:06.885Z,16.30
2022-10-02T12:49:45.732Z,16.27
2022-10-02T12:52:53.177Z,16.92
2022-10-02T12:55:58.332Z,16.70
2022-10-02T12:58:35.129Z,16.60
2022-10-02T13:01:34.417Z,16.20
2022-10-02T13:04:27.270Z,16.27
2022-10-02T13:07:44.390Z,16.13
2022-10-02T13:10:20.287Z,16.52
2022-10-02T13:13:03.167Z,16.08
2022-10-02T13:15:39.692Z,15.98
2022-10-02T13:18:25.410Z,16.92
2022-10-02T13:21:04.204Z,16.80
2022-10-02T13:23:42.085Z,18.73
2022-10-02T13:26:23.797Z,17.20
2022-10-02T13:29:21.556Z,16.98
2022-10-02T13:32:24.595Z,16.55
2022-10-02T13:35:16.912Z,16.60
2022-10-02T13:37:58.488Z,16.35
2022-10-02T13:40:33.882Z,20.23
2022-10-02T13:43:35.582Z,16.45
2022-10-02T13:46:15.101Z,12.20
2022-10-02T13:48:55.999Z,16.42
2022-10-02T13:51:31.768Z,19.30
2022-10-02T13:54:18.437Z,16.63
2022-10-02T13:56:52.789Z,17.40
2022-10-02T14:00:01.550Z,16.30
2022-10-02T14:02:49.501Z,16.50
2022-10-02T14:05:33.155Z,16.17
2022-10-02T14:08:21.349Z,16.23
2022-10-02T14:11:04.851Z,16.00
2022-10-02T14:13:54.176Z,16.42
2022-10-02T14:16:39.324Z,15.98
2022-10-02T14:19:42.437Z,17.10
2022-10-02T14:22:33.829Z,16.42
2022-10-02T14:25:26.456Z,16.15
2022-10-02T14:28:27.969Z,16.27
2022-10-02T14:31:10.376Z,15.88
2022-10-02T14:33:57.686Z,15.63
2022-10-02T14:36:32.842Z,15.68
2022-10-02T14:39:21.193Z,15.85
2022-10-02T14:42:07.257Z,16.25
2022-10-02T14:44:56.913Z,16.25
2022-10-02T14:47:39.109Z,17.73
2022-10-02T14:50:26.225Z,15.77
2022-10-02T14:53:16.486Z,15.13
2022-10-02T14:56:02.239Z,15.63
2022-10-02T14:58:41.135Z,15.10
2022-10-02T15:01:22.347Z,15.45
2022-10-02T15:04:24.894Z,15.68
2022-10-02T15:07:16.482Z,15.30
2022-10-02T15:09:58.380Z,15.40
2022-10-02T15:12:31.080Z,15.70
2022-10-02T15:15:10.033Z,15.30
2022-10-02T15:18:00.071Z,14.25
2022-10-02T15:20:37.838Z,14.48
2022-10-02T15:23:12.405Z,14.30
2022-10-02T15:26:03.177Z,13.90
2022-10-02T15:28:47.919Z,14.07
2022-10-02T15:31:27.987Z,13.02
2022-10-02T15:34:08.385Z,12.80
2022-10-02T15:36:52.337Z,12.63
2022-10-02T15:39:46.328Z,12.10
2022-10-02T15:42:19.992Z,11.80
2022-10-02T15:45:18.349Z,11.52
2022-10-02T15:48:03.805Z,10.32
2022-10-02T15:50:42.353Z,9.20
2022-10-02T15:53:32.652Z,9.48
2022-10-02T15:56:22.558Z,9.57
2022-10-02T15:59:06.455Z,10.52
2022-10-02T16:01:48.004Z,9.38
2022-10-02T16:04:26.177Z,9.30
2022-10-02T16:07:34.237Z,8.48
2022-10-02T16:10:16.189Z,7.05
2022-10-02T16:13:07.875Z,6.55
2022-10-02T16:15:51.952Z,6.40
2022-10-02T16:18:40.968Z,6.30
2022-10-02T16:21:25.219Z,5.93
2022-10-02T16:24:16.013Z,5.57
2022-10-02T16:27:28.878Z,4.00
2022-10-02T16:30:11.837Z,3.90
2022-10-02T16:32:52.725Z,4.72
2022-10-02T16:35:46.494Z,3.40
2022-10-02T16:38:23.336Z,3.60
2022-10-02T16:40:57.832Z,3.15
2022-10-02T16:43:44.713Z,2.70
2022-10-02T16:46:18.175Z,1.90
2022-10-02T16:48:54.080Z,1.90
2022-10-02T16:51:37.099Z,2.35
2022-10-02T16:54:15.198Z,2.15
2022-10-02T16:56:50.570Z,2.00
2022-10-02T16:59:25.102Z,1.50
2022-10-02T17:02:16.985Z,2.25
2022-10-02T17:04:56.738Z,1.20
2022-10-02T17:07:36.301Z,1.55
2022-10-02T17:10:19.278Z,1.35
2022-10-02T17:12:53.604Z,1.73
2022-10-02T17:15:26.703Z,1.90
2022-10-02T17:18:18.420Z,1.27
2022-10-02T17:20:51.092Z,1.10
2022-10-02T17:23:26.350Z,1.10
2022-10-02T17:26:02.751Z,1.23
2022-10-02T17:28:39.152Z,0.75
2022-10-02T17:31:35.515Z,0.93
2022-10-02T17:34:20.011Z,1.23
2022-10-02T17:36:55.311Z,1.05
2022-10-02T17:39:57.549Z,1.23
2022-10-02T17:42:41.145Z,1.27
2022-10-02T17:45:21.201Z,1.17
2022-10-02T17:48:07.492Z,0.70
2022-10-02T17:50:57.846Z,1.92
2022-10-02T17:54:03.065Z,1.42
2022-10-02T17:56:51.533Z,1.05
2022-10-02T17:59:38.868Z,0.70
2022-10-02T18:02:17.832Z,1.33
2022-10-02T18:05:00.832Z,0.57
2022-10-02T18:07:48.283Z,0.45
2022-10-02T18:10:25.735Z,0.80
2022-10-02T18:13:15.422Z,0.57
2022-10-02T18:15:59.388Z,0.85
2022-10-02T18:18:35.454Z,1.05
2022-10-02T18:21:21.203Z,0.75
2022-10-02T18:24:35.627Z,0.82
2022-10-02T18:27:25.590Z,0.75
2022-10-02T18:30:04.686Z,0.60
2022-10-02T18:32:52.070Z,0.60
2022-10-02T18:35:35.001Z,0.73
2022-10-02T18:38:14.156Z,0.82
2022-10-02T18:40:56.000Z,0.75
2022-10-02T18:43:47.659Z,0.85
2022-10-02T18:46:27.329Z,0.80
2022-10-02T18:49:25.186Z,0.93
2022-10-02T18:52:19.270Z,0.82
2022-10-02T18:55:01.290Z,0.70
2022-10-02T18:57:40.802Z,1.02
2022-10-02T19:00:18.404Z,0.68
2022-10-02T19:03:07.336Z,1.02
2022-10-02T19:05:41.457Z,1.15
2022-10-02T19:08:19.021Z,0.77
2022-10-02T19:10:48.078Z,1.05
2022-10-02T19:13:24.364Z,2.33
2022-10-02T19:15:53.962Z,2.10
2022-10-02T19:18:23.623Z,1.55
2022-10-02T19:21:06.712Z,1.10
2022-10-02T19:23:38.907Z,2.20
2022-10-02T19:26:17.309Z,0.98
2022-10-02T19:28:50.233Z,2.17
2022-10-02T19:31:23.406Z,1.33
2022-10-02T19:33:55.212Z,0.60
2022-10-02T19:36:27.356Z,1.42
2022-10-02T19:38:58.866Z,1.25
2022-10-02T19:41:27.170Z,1.15
2022-10-02T19:44:00.973Z,1.17
2022-10-02T19:46:34.269Z,1.15
2022-10-02T19:49:03.067Z,0.82
2022-10-02T19:51:43.453Z,0.88
2022-10-02T19:54:17.436Z,0.95
2022-10-02T19:56:46.494Z,1.70
2022-10-02T19:59:19.473Z,0.40
2022-10-02T20:01:52.927Z,1.88
2022-10-02T20:04:22.997Z,0.50
2022-10-02T20:06:53.935Z,0.55
2022-10-02T20:09:28.191Z,1.13
2022-10-02T20:12:01.967Z,0.40
2022-10-02T20:14:38.073Z,0.50
2022-10-02T20:17:11.330Z,0.88
2022-10-02T20:19:45.336Z,1.00
2022-10-02T20:22:23.979Z,0.60
2022-10-02T20:24:57.818Z,0.60
2022-10-02T20:27:34.698Z,0.55
2022-10-02T20:30:10.786Z,0.50
2022-10-02T20:32:42.030Z,1.70
2022-10-02T20:35:16.690Z,0.80
2022-10-02T20:37:49.126Z,0.57
2022-10-02T20:40:20.710Z,0.63
2022-10-02T20:42:58.298Z,1.55
2022-10-02T20:45:37.998Z,8.90
2022-10-02T20:49:03.162Z,2.60
2022-10-02T20:51:44.979Z,0.40
2022-10-02T20:54:28.397Z,2.63
2022-10-02T20:57:56.029Z,1.10
2022-10-02T21:00:22.381Z,1.40
2022-10-02T21:03:25.964Z,0.40
2022-10-02T21:06:37.288Z,0.50
2022-10-02T21:09:42.544Z,0.60
2022-10-02T21:12:44.742Z,0.60
2022-10-02T21:15:41.291Z,0.57
2022-10-02T21:18:32.895Z,0.50
2022-10-02T21:21:25.414Z,1.57
2022-10-02T21:24:37.735Z,0.40
2022-10-02T21:27:43.934Z,0.30
2022-10-02T21:30:15.154Z,1.93
2022-10-02T21:33:12.846Z,0.50
2022-10-02T21:35:48.879Z,1.03
2022-10-02T21:38:55.375Z,0.67
2022-10-02T21:41:56.460Z,0.37
2022-10-02T21:44:59.243Z,0.77
2022-10-02T21:48:08.307Z,0.37
2022-10-02T21:50:51.742Z,0.83
2022-10-02T21:54:02.024Z,0.50
2022-10-02T21:56:53.272Z,1.13
2022-10-02T22:00:11.123Z,0.60
2022-10-02T22:03:10.219Z,0.53
2022-10-02T22:06:11.273Z,0.33
2022-10-02T22:08:57.588Z,0.93
2022-10-02T22:11:33.453Z,0.43
2022-10-02T22:14:09.644Z,0.60
2022-10-02T22:16:45.857Z,0.40
2022-10-02T22:19:28.205Z,0.73
2022-10-02T22:22:13.776Z,0.67
2022-10-02T22:24:56.336Z,0.40
2022-10-02T22:27:42.456Z,0.40
2022-10-02T22:30:22.557Z,0.90
2022-10-02T22:33:25.585Z,0.47
2022-10-02T22:36:21.120Z,0.40
2022-10-02T22:38:53.210Z,1.33
2022-10-02T22:41:27.790Z,1.27
2022-10-02T22:43:59.786Z,0.70
2022-10-02T22:46:41.309Z,0.90
2022-10-02T22:49:22.364Z,0.97
2022-10-02T22:52:00.421Z,0.20
2022-10-02T22:54:35.936Z,0.50
2022-10-02T22:57:13.190Z,0.70
2022-10-02T22:59:47.563Z,0.90
2022-10-02T23:02:21.869Z,0.50
2022-10-02T23:04:56.731Z,0.63
2022-10-02T23:07:29.736Z,0.67
2022-10-02T23:10:02.762Z,0.30
2022-10-02T23:12:39.618Z,0.47
2022-10-02T23:15:27.717Z,0.40
2022-10-02T23:18:00.232Z,0.97
2022-10-02T23:20:34.116Z,0.70
2022-10-02T23:23:13.472Z,0.90
2022-10-02T23:25:47.131Z,0.40
2022-10-02T23:28:21.601Z,1.03
2022-10-02T23:31:00.230Z,1.00
2022-10-02T23:33:33.060Z,0.60
2022-10-02T23:36:08.053Z,0.37
2022-10-02T23:38:46.425Z,0.53
2022-10-02T23:41:40.142Z,0.30
2022-10-02T23:44:18.078Z,0.33
2022-10-02T23:47:14.758Z,0.10
2022-10-02T23:49:47.450Z,0.77
2022-10-02T23:52:46.673Z,0.30
2022-10-02T23:55:33.631Z,0.33
2022-10-02T23:58:34.345Z,0.30
